Nearby METAR Reports

 

KLXT - Lees Summit Muni, Missouri, USA
Distance from station: E 5mi, 9km
Updated: Mon, 27-Jul-2015 9:53pm CDT
Clear
Clear
 Wind from SSE
Wind: SSE 5 mph , 7 km/h
Temperature: 84°F , 29°C
Heat Index: 90°F , 32°C
Dew Point: 73°F , 23°C
Humidity: 70%
Barometer: 29.91 inHg , 1012.9 hPa
Clouds: Clear
Visibility: 10 miles , 16 km
2015/07/28 02:53 KLXT 280253Z AUTO 15004KT 10SM CLR 29/23 A2991 RMK AO2 SLP117 T02940233 53007
KMKC - Kansas City/Dntn, Missouri, USA
Distance from station: NW 12mi, 19km
Updated: Mon, 27-Jul-2015 9:54pm CDT
Clear
Clear
 Wind from SE
Wind: SE 9 mph , 15 km/h
Temperature: 90°F , 32°C
Heat Index: 99°F , 37°C
Dew Point: 73°F , 23°C
Humidity: 59%
Barometer: 29.88 inHg , 1011.9 hPa
Clouds: Clear
Visibility: 10 miles , 16 km
2015/07/28 02:54 KMKC 280254Z 13008KT 10SM CLR 32/23 A2988 RMK AO2 SLP106 T03170228 53009
 
KIXD - Olathe/Industria, Kansas, USA
Distance from station: WSW 25mi, 41km
Updated: Mon, 27-Jul-2015 9:53pm CDT
Clear
Clear
 Wind from S
Wind: S 7 mph , 11 km/h
Temperature: 82°F , 28°C
Heat Index: 87°F , 31°C
Dew Point: 73°F , 23°C
Humidity: 74%
Barometer: 29.91 inHg , 1012.9 hPa
Clouds: Clear
Visibility: 10 miles , 16 km
2015/07/28 02:53 KIXD 280253Z 17006KT 10SM CLR 28/23 A2991 RMK AO2 SLP112 T02830233 53010
KMCI - Kansas City/Intl, Missouri, USA
Distance from station: NW 26mi, 42km
Updated: Mon, 27-Jul-2015 9:53pm CDT
Partly cloudy
Partly cloudy
 Wind from SSE
Wind: SSE 8 mph , 13 km/h
Temperature: 82°F , 28°C
Heat Index: 87°F , 31°C
Dew Point: 73°F , 23°C
Humidity: 74%
Barometer: 29.89 inHg , 1012.2 hPa
Clouds: Partly cloudy
Visibility: 10 miles , 16 km
Cloud details: Partly cloudy 22000 ft
2015/07/28 02:53 KMCI 280253Z 15007KT 10SM SCT220 28/23 A2989 RMK AO2 SLP109 T02780228 53008
 
KRCM - Warrensburg Skyh, Missouri, USA
Distance from station: ESE 38mi, 62km
Updated: Mon, 27-Jul-2015 10:15pm CDT
Clear
Clear
 Wind from SE
Wind: SE 5 mph , 7 km/h
Temperature: 82°F , 28°C
Heat Index: 89°F , 32°C
Dew Point: 75°F , 24°C
Humidity: 79%
Barometer: 29.91 inHg , 1012.9 hPa
Clouds: Clear
Visibility: 10 miles , 16 km
2015/07/28 03:15 KRCM 280315Z AUTO 14004KT 10SM CLR 28/24 A2991 RMK AO2
KLWC - Lawrence, Kansas, USA
Distance from station: W 40mi, 65km
Updated: Mon, 27-Jul-2015 9:52pm CDT
Clear
Clear
 Wind from SE
Wind: SE 7 mph , 11 km/h
Temperature: 81°F , 27°C
Heat Index: 86°F , 30°C
Dew Point: 73°F , 23°C
Humidity: 79%
Barometer: 29.88 inHg , 1011.9 hPa
Clouds: Clear
Visibility: 10 miles , 16 km
2015/07/28 02:52 KLWC 280252Z AUTO 14006KT 10SM CLR 27/23 A2988 RMK AO2 SLP109 T02720233 53014
 
KSZL - Whiteman Afb, Missouri, USA
Distance from station: ESE 53mi, 86km
Updated: Mon, 27-Jul-2015 9:58pm CDT
Few Clouds
Few Clouds
 Wind from SE
Wind: SE 6 mph , 9 km/h
Temperature: 82°F , 28°C
Heat Index: 90°F , 32°C
Dew Point: 77°F , 25°C
Humidity: 84%
Barometer: 29.91 inHg , 1012.9 hPa
Clouds: Few Clouds
Visibility: 10 miles , 16 km
Cloud details: Few Clouds 18000 ft
2015/07/28 02:58 KSZL 280258Z 13005KT 10SM FEW180 28/25 A2991 RMK AO2A SLP121 T02840246 52012
KSTJ - St. Joseph, Missouri, USA
Distance from station: NNW 59mi, 95km
Updated: Mon, 27-Jul-2015 9:53pm CDT
Clear
Clear
 Wind from ESE
Wind: ESE 14 mph , 22 km/h
Temperature: 79°F , 26°C
Dew Point: 72°F , 22°C
Humidity: 79%
Barometer: 29.88 inHg , 1011.9 hPa
Clouds: Clear
Visibility: 10 miles , 16 km
2015/07/28 02:53 KSTJ 280253Z AUTO 11012KT 10SM CLR 26/22 A2988 RMK AO2 SLP108 T02610222 53008
 
KGLY - Clinton, Missouri, USA
Distance from station: SE 61mi, 98km
Updated: Mon, 27-Jul-2015 10:15pm CDT

 Wind from calm
Wind: Calm
Temperature: 84°F , 29°C
Heat Index: 96°F , 36°C
Dew Point: 79°F , 26°C
Humidity: 84%
Barometer: 29.93 inHg , 1013.5 hPa
Visibility: 9 miles , 14 km
2015/07/28 03:15 KGLY 280315Z AUTO 00000KT 9SM 29/26 A2993 RMK AO2
KFOE - Topeka/Forbes, Kansas, USA
Distance from station: W 64mi, 103km
Updated: Mon, 27-Jul-2015 9:53pm CDT
Clear
Clear
 Wind from SSE
Wind: SSE 8 mph , 13 km/h
Temperature: 84°F , 29°C
Heat Index: 89°F , 32°C
Dew Point: 72°F , 22°C
Humidity: 66%
Barometer: 29.88 inHg , 1011.9 hPa
Clouds: Clear
Visibility: 10 miles , 16 km
2015/07/28 02:53 KFOE 280253Z AUTO 15007KT 10SM CLR 29/22 A2988 RMK AO2 SLP103 T02890222 53011
 
KDMO - Sedalia, Missouri, USA
Distance from station: ESE 72mi, 116km
Updated: Mon, 27-Jul-2015 9:53pm CDT
Clear
Clear
 Wind from SE
Wind: SE 5 mph , 7 km/h
Temperature: 84°F , 29°C
Heat Index: 94°F , 34°C
Dew Point: 77°F , 25°C
Humidity: 79%
Barometer: 29.94 inHg , 1013.9 hPa
Clouds: Clear
Visibility: 10 miles , 16 km
2015/07/28 02:53 KDMO 280253Z AUTO 13004KT 10SM CLR 29/25 A2994 RMK AO2 SLP127 T02890250 52012
KCDJ - Chillicothe, Missouri, USA
Distance from station: NE 74mi, 120km
Updated: Mon, 27-Jul-2015 9:52pm CDT

 Wind from ESE
Wind: ESE 10 mph , 17 km/h
Temperature: 77°F , 25°C
Dew Point: 70°F , 21°C
Humidity: 79%
Barometer: 29.94 inHg , 1013.9 hPa
2015/07/28 02:52 KCDJ 280252Z AUTO 12009KT 25/21 A2994 RMK AO1 SLP123 T02500211 53004
 
KFNB - Falls City/Brenn, Nebraska, USA
Distance from station: NW 96mi, 154km
Updated: Mon, 27-Jul-2015 9:53pm CDT
Clear
Clear
 Wind from ESE
Wind: ESE 9 mph , 15 km/h
Temperature: 79°F , 26°C
Dew Point: 75°F , 24°C
Humidity: 89%
Barometer: 29.85 inHg , 1010.8 hPa
Clouds: Clear
Visibility: 10 miles , 16 km
2015/07/28 02:53 KFNB 280253Z AUTO 11008KT 10SM CLR 26/24 A2985 RMK AO2 SLP098 T02560239 53007
KVER - Boonville, Missouri, USA
Distance from station: E 96mi, 154km
Updated: Mon, 27-Jul-2015 10:15pm CDT
Clear
Clear
 Wind from E
Wind: E 9 mph , 15 km/h
Temperature: 77°F , 25°C
Dew Point: 73°F , 23°C
Humidity: 89%
Barometer: 29.94 inHg , 1013.9 hPa
Clouds: Clear
Visibility: 10 miles , 16 km
2015/07/28 03:15 KVER 280315Z AUTO 09008KT 10SM CLR 25/23 A2994 RMK AO2 T02500227